Time;durP1;ratioP1;P1;durP2;ratioP2;P2;SDS_P1;SDS_P2;PMS_P1;PMS_P2;Temp;Humidity;BMP_temperature;BMP_pressure;BME280_temperature;BME280_humidity;BME280_pressure;Samples;Min_cycle;Max_cycle;Signal;HPM_P1;HPM_P2
2021/11/12 00:14:24;;;;;;;258.13;81.97;;;9.10;95.90;;;;;;5054797;28;20540;-86
2021/11/12 00:16:51;;;;;;;295.80;90.07;;;9.10;95.90;;;;;;5036966;28;20164;-87
2021/11/12 00:19:18;;;;;;;294.43;88.67;;;9.20;95.90;;;;;;5036837;28;20204;-86
2021/11/12 00:21:44;;;;;;;278.13;87.20;;;9.20;95.90;;;;;;5054773;28;20207;-87
2021/11/12 00:24:10;;;;;;;274.50;86.63;;;9.20;95.90;;;;;;5036820;28;20263;-87
2021/11/12 00:26:36;;;;;;;296.47;90.87;;;9.10;95.90;;;;;;5036753;28;20326;-87
2021/11/12 00:29:04;;;;;;;277.60;88.77;;;9.10;95.90;;;;;;5036737;28;20636;-87
2021/11/12 00:37:15;;;;;;;289.90;88.00;;;9.00;95.90;;;;;;4973678;28;20202;-87
2021/11/12 00:39:47;;;;;;;311.20;89.93;;;9.10;95.90;;;;;;4973647;28;20177;-87
2021/11/12 00:42:18;;;;;;;339.43;90.37;;;9.00;95.90;;;;;;5019195;28;20204;-87
2021/11/12 00:47:24;;;;;;;327.07;87.73;;;9.00;95.90;;;;;;5054911;28;20694;-87
2021/11/12 00:50:33;;;;;;;307.70;86.30;;;9.00;96.00;;;;;;5054088;28;20211;-86
2021/11/12 00:55:15;;;;;;;290.43;78.17;;;9.00;96.00;;;;;;5053638;28;20556;-87
2021/11/12 00:57:41;;;;;;;315.07;84.57;;;8.90;96.00;;;;;;5054030;28;20590;-87
2021/11/12 01:00:09;;;;;;;287.00;76.73;;;8.90;96.10;;;;;;5036163;28;20215;-87
2021/11/12 01:02:36;;;;;;;345.20;90.07;;;8.90;96.10;;;;;;5035863;28;20672;-86
2021/11/12 01:05:03;;;;;;;357.53;93.80;;;8.90;96.10;;;;;;5036142;28;20175;-86
2021/11/12 01:07:29;;;;;;;331.80;89.23;;;8.90;96.20;;;;;;5036024;28;20211;-87
2021/11/12 01:09:55;;;;;;;352.17;89.50;;;8.90;96.10;;;;;;5035811;28;20601;-87
2021/11/12 01:12:21;;;;;;;333.67;84.97;;;8.90;96.10;;;;;;5035839;28;20188;-87
2021/11/12 01:14:47;;;;;;;354.70;88.73;;;8.90;96.20;;;;;;5035983;28;20616;-87
2021/11/12 01:17:13;;;;;;;342.83;85.73;;;8.80;96.20;;;;;;5053653;28;20175;-87
2021/11/12 01:19:39;;;;;;;350.93;87.97;;;8.90;96.20;;;;;;5035846;28;20168;-87
2021/11/12 01:22:05;;;;;;;345.43;83.07;;;8.80;96.20;;;;;;5053427;28;20214;-87
2021/11/12 01:24:31;;;;;;;378.73;90.80;;;8.80;96.20;;;;;;5053626;28;20185;-87
2021/11/12 01:26:57;;;;;;;365.33;83.33;;;8.80;96.20;;;;;;5036067;28;20636;-87
2021/11/12 01:29:23;;;;;;;339.30;82.50;;;8.80;96.20;;;;;;5053456;28;20176;-87
2021/11/12 01:31:49;;;;;;;373.73;87.77;;;8.80;96.20;;;;;;5035591;28;20215;-87
2021/11/12 01:34:15;;;;;;;341.90;84.23;;;8.90;96.20;;;;;;5053585;28;20739;-87
2021/11/12 01:36:44;;;;;;;333.27;85.93;;;8.90;96.20;;;;;;5035604;28;20176;-87
2021/11/12 01:39:18;;;;;;;349.27;90.03;;;8.90;96.20;;;;;;5053423;28;20546;-87
2021/11/12 01:41:48;;;;;;;362.90;84.23;;;8.90;96.20;;;;;;5035416;28;20200;-87
2021/11/12 01:44:14;;;;;;;370.63;86.80;;;8.80;96.20;;;;;;5035411;28;20266;-87
2021/11/12 01:46:55;;;;;;;348.27;83.77;;;8.80;96.20;;;;;;5053253;28;20168;-87
2021/11/12 01:49:27;;;;;;;341.73;82.07;;;8.80;96.20;;;;;;5035432;28;20529;-87
2021/11/12 01:52:17;;;;;;;342.13;80.40;;;8.80;96.20;;;;;;5035337;28;20218;-87
2021/11/12 01:54:56;;;;;;;342.77;81.77;;;8.80;96.20;;;;;;5053205;28;20164;-87
2021/11/12 01:59:52;;;;;;;359.83;81.97;;;8.80;96.20;;;;;;5053375;28;20302;-87
2021/11/12 02:02:18;;;;;;;340.43;78.40;;;8.90;96.20;;;;;;5053071;28;20192;-87
2021/11/12 02:04:44;;;;;;;353.67;78.67;;;8.80;96.20;;;;;;5053227;28;20180;-87
2021/11/12 02:07:11;;;;;;;328.10;75.10;;;8.90;96.20;;;;;;5057267;28;20171;-87
2021/11/12 02:09:38;;;;;;;329.07;78.87;;;8.90;96.20;;;;;;5039457;28;20183;-87
2021/11/12 02:12:31;;;;;;;338.33;77.97;;;8.90;96.20;;;;;;5057046;28;20203;-87
2021/11/12 02:14:58;;;;;;;316.57;74.30;;;8.90;96.20;;;;;;5039314;28;20172;-87
2021/11/12 02:17:30;;;;;;;317.83;76.50;;;8.90;96.20;;;;;;5039323;28;20266;-87
2021/11/12 02:22:44;;;;;;;328.93;72.60;;;8.80;96.20;;;;;;5056911;28;20709;-87
2021/11/12 02:25:13;;;;;;;337.23;79.43;;;8.90;96.20;;;;;;5039157;28;20202;-87
2021/11/12 02:27:49;;;;;;;334.93;74.70;;;8.90;96.20;;;;;;5056886;28;20164;-87
2021/11/12 02:30:24;;;;;;;349.57;74.93;;;8.80;96.10;;;;;;5038954;28;20191;-87
2021/11/12 02:33:18;;;;;;;338.20;73.07;;;8.80;96.10;;;;;;5038954;28;20218;-87
2021/11/12 02:35:58;;;;;;;373.23;77.37;;;8.80;96.10;;;;;;5053750;28;20270;-87
2021/11/12 02:38:24;;;;;;;357.83;73.40;;;8.70;96.10;;;;;;5038759;28;20203;-87
2021/11/12 02:40:51;;;;;;;368.27;79.63;;;8.70;96.10;;;;;;5038818;28;20567;-87
2021/11/12 02:43:17;;;;;;;353.00;72.67;;;8.80;96.10;;;;;;5056662;28;20172;-87
2021/11/12 02:45:44;;;;;;;330.17;71.40;;;8.70;96.10;;;;;;5038693;28;20172;-86
2021/11/12 02:48:11;;;;;;;313.20;67.03;;;8.80;96.10;;;;;;5038756;28;20172;-87
2021/11/12 02:50:38;;;;;;;311.33;67.67;;;8.70;96.10;;;;;;5056376;28;20196;-86
2021/11/12 02:53:09;;;;;;;357.33;73.23;;;8.70;96.20;;;;;;5056328;28;20196;-87
2021/11/12 02:55:35;;;;;;;356.03;76.17;;;8.70;96.20;;;;;;5056467;28;20520;-87
2021/11/12 02:58:00;;;;;;;342.73;72.50;;;8.70;96.20;;;;;;5038550;28;20174;-87
2021/11/12 03:00:26;;;;;;;343.53;74.67;;;8.80;96.20;;;;;;5038463;28;20172;-87
2021/11/12 03:02:53;;;;;;;348.77;74.03;;;8.70;96.20;;;;;;5038290;28;20203;-87
2021/11/12 03:05:19;;;;;;;329.47;75.23;;;8.80;96.20;;;;;;5038333;28;20175;-87
2021/11/12 03:07:45;;;;;;;323.27;73.47;;;8.80;96.20;;;;;;5056124;28;20225;-87
2021/11/12 03:10:11;;;;;;;304.10;71.03;;;8.70;96.20;;;;;;5038167;28;20199;-87
2021/11/12 03:12:37;;;;;;;300.53;72.13;;;8.70;96.20;;;;;;5056219;28;20679;-86
2021/11/12 03:15:04;;;;;;;300.17;71.30;;;8.70;96.10;;;;;;5038163;28;20172;-87
2021/11/12 03:17:29;;;;;;;320.70;74.43;;;8.70;96.20;;;;;;5053822;28;20176;-87
2021/11/12 03:19:55;;;;;;;297.77;74.97;;;8.60;96.20;;;;;;5038102;28;20176;-87
2021/11/12 03:22:23;;;;;;;259.03;67.03;;;8.60;96.10;;;;;;5055721;28;20286;-87
2021/11/12 03:25:00;;;;;;;305.13;74.10;;;8.60;96.10;;;;;;5038013;28;20229;-87
2021/11/12 03:27:40;;;;;;;298.57;71.57;;;8.60;96.10;;;;;;5055874;28;20148;-86
2021/11/12 03:49:57;;;;;;;307.50;75.83;;;8.70;96.10;;;;;;5055989;28;20167;-86
2021/11/12 04:00:46;;;;;;;280.77;68.20;;;8.60;96.00;;;;;;5055855;28;20174;-87
2021/11/12 04:03:18;;;;;;;274.43;66.20;;;8.60;96.10;;;;;;5055075;28;20168;-87
2021/11/12 04:30:37;;;;;;;259.73;63.47;;;8.60;96.00;;;;;;5054787;28;20241;-87
2021/11/12 05:57:06;;;;;;;208.53;62.97;;;8.30;95.90;;;;;;5053489;28;20516;-87
2021/11/12 05:59:32;;;;;;;211.53;67.37;;;8.30;95.90;;;;;;5053266;28;20168;-87
2021/11/12 06:01:58;;;;;;;228.03;67.83;;;8.30;95.90;;;;;;5035212;28;20204;-87
2021/11/12 06:04:24;;;;;;;225.07;68.37;;;8.30;95.90;;;;;;5035306;28;20188;-87
2021/11/12 06:06:50;;;;;;;235.07;71.57;;;8.30;95.90;;;;;;5035152;28;20179;-87
2021/11/12 06:09:17;;;;;;;237.77;73.87;;;8.30;95.90;;;;;;5053002;28;20167;-87
2021/11/12 06:11:43;;;;;;;234.00;73.57;;;8.30;95.90;;;;;;5052783;28;20696;-87
2021/11/12 06:14:09;;;;;;;221.07;70.17;;;8.30;95.90;;;;;;5053032;28;20586;-87
2021/11/12 06:16:35;;;;;;;229.33;71.00;;;8.30;95.90;;;;;;5035087;28;20176;-87
2021/11/12 06:19:02;;;;;;;199.13;65.47;;;8.30;95.90;;;;;;5035125;28;20233;-86
2021/11/12 06:21:29;;;;;;;218.40;68.43;;;8.30;95.90;;;;;;5034814;28;20215;-87
2021/11/12 06:23:55;;;;;;;235.77;72.77;;;8.30;95.90;;;;;;5052860;28;20668;-87
2021/11/12 06:26:21;;;;;;;212.97;69.07;;;8.30;95.90;;;;;;5034959;28;20568;-86
2021/11/12 06:28:49;;;;;;;177.37;55.43;;;8.30;95.90;;;;;;5052780;28;20179;-86
2021/11/12 06:31:15;;;;;;;215.90;67.50;;;8.30;95.90;;;;;;5052774;28;20693;-86
2021/11/12 06:33:41;;;;;;;208.03;64.33;;;8.30;95.90;;;;;;5035277;28;20176;-87
2021/11/12 06:36:07;;;;;;;212.07;66.47;;;8.30;95.90;;;;;;5034993;28;20176;-87
2021/11/12 06:38:33;;;;;;;230.83;72.70;;;8.30;96.00;;;;;;5034891;28;20549;-87
2021/11/12 06:41:04;;;;;;;224.17;72.50;;;8.30;96.00;;;;;;5034923;28;20270;-87
2021/11/12 06:43:36;;;;;;;232.57;71.87;;;8.30;95.90;;;;;;5034943;28;20178;-87
2021/11/12 06:51:31;;;;;;;228.30;71.30;;;8.30;96.00;;;;;;5052831;28;20211;-87
2021/11/12 06:53:57;;;;;;;231.27;72.50;;;8.30;95.90;;;;;;5056266;28;20171;-87
2021/11/12 06:56:23;;;;;;;215.00;67.53;;;8.30;95.90;;;;;;5038587;28;20553;-87
2021/11/12 06:58:50;;;;;;;202.00;62.87;;;8.30;95.90;;;;;;5038487;28;20210;-87
2021/11/12 07:01:16;;;;;;;204.03;63.80;;;8.30;95.90;;;;;;5038436;28;20281;-87
2021/11/12 07:03:42;;;;;;;212.43;66.47;;;8.20;95.90;;;;;;5038423;28;20255;-87
2021/11/12 07:06:08;;;;;;;186.03;58.30;;;8.20;95.90;;;;;;5038687;28;20218;-87
2021/11/12 07:08:34;;;;;;;179.30;58.97;;;8.20;95.90;;;;;;5056335;28;20168;-87
2021/11/12 07:11:00;;;;;;;189.90;62.67;;;8.20;96.00;;;;;;5038155;28;20294;-86
2021/11/12 07:13:28;;;;;;;179.63;58.43;;;8.20;96.00;;;;;;5038365;28;20168;-86
2021/11/12 07:15:56;;;;;;;193.70;62.30;;;8.20;96.00;;;;;;5056316;28;20549;-87
2021/11/12 07:18:24;;;;;;;198.37;60.57;;;8.20;96.00;;;;;;5056024;28;20165;-87
2021/11/12 07:20:50;;;;;;;202.43;60.33;;;8.20;96.00;;;;;;5038033;28;20180;-87
2021/11/12 07:23:19;;;;;;;191.27;60.83;;;8.20;95.90;;;;;;5055883;28;20161;-87
2021/11/12 07:25:46;;;;;;;189.20;60.10;;;8.20;96.00;;;;;;5038344;28;20180;-87
2021/11/12 07:28:13;;;;;;;187.60;57.93;;;8.30;96.00;;;;;;5037930;28;20668;-86
2021/11/12 07:30:41;;;;;;;188.70;57.63;;;8.20;96.00;;;;;;5037910;28;20212;-87
2021/11/12 07:33:08;;;;;;;187.37;57.53;;;8.30;96.00;;;;;;5037879;28;20169;-87
2021/11/12 07:35:39;;;;;;;186.50;53.20;;;8.30;96.00;;;;;;5037763;28;20180;-87
2021/11/12 07:38:14;;;;;;;174.20;53.63;;;8.30;96.00;;;;;;5055747;28;20620;-87
2021/11/12 07:41:02;;;;;;;171.33;52.07;;;8.20;95.90;;;;;;5037785;28;20175;-87
2021/11/12 07:48:39;;;;;;;187.63;48.57;;;8.00;96.00;;;;;;5055987;28;20180;-87
2021/11/12 07:51:06;;;;;;;178.77;52.27;;;8.10;96.00;;;;;;5037339;28;20582;-87
2021/11/12 07:53:32;;;;;;;185.90;45.60;;;8.10;96.00;;;;;;5055272;28;20161;-87
2021/11/12 07:55:58;;;;;;;209.17;54.27;;;8.00;96.00;;;;;;5037428;28;20671;-87
2021/11/12 07:58:23;;;;;;;174.13;50.87;;;8.10;96.00;;;;;;5037373;28;20172;-87
2021/11/12 08:00:49;;;;;;;168.63;47.23;;;8.20;96.10;;;;;;5037377;28;20183;-87
2021/11/12 08:03:15;;;;;;;163.23;44.53;;;8.00;95.90;;;;;;5036973;28;20179;-87
2021/11/12 08:05:44;;;;;;;189.10;48.07;;;8.00;96.00;;;;;;5037183;28;20597;-87
2021/11/12 08:08:13;;;;;;;183.57;48.67;;;7.90;96.00;;;;;;5037208;28;20179;-86
2021/11/12 08:10:49;;;;;;;174.67;47.93;;;8.00;96.00;;;;;;5055112;28;20241;-87
2021/11/12 08:18:58;;;;;;;139.63;41.33;;;8.10;96.00;;;;;;5055550;28;20167;-87
2021/11/12 08:21:37;;;;;;;146.47;43.03;;;8.00;96.00;;;;;;5055005;28;20237;-87
2021/11/12 08:36:51;;;;;;;119.43;38.83;;;8.00;95.90;;;;;;5054680;28;20259;-87
2021/11/12 08:42:06;;;;;;;108.87;33.50;;;8.00;95.90;;;;;;5054707;28;20261;-87
2021/11/12 08:47:18;;;;;;;99.67;33.80;;;7.90;95.80;;;;;;5054918;28;20183;-87
2021/11/12 08:49:44;;;;;;;104.93;34.90;;;7.80;95.80;;;;;;5036444;28;20596;-86
2021/11/12 08:52:14;;;;;;;103.87;32.73;;;7.80;95.80;;;;;;5037102;28;20295;-86
2021/11/12 08:54:43;;;;;;;109.80;35.10;;;7.80;95.80;;;;;;5036283;28;20640;-87
2021/11/12 08:57:10;;;;;;;100.77;34.57;;;7.90;95.80;;;;;;5036419;28;20169;-87
2021/11/12 08:59:40;;;;;;;95.23;32.13;;;8.00;95.80;;;;;;5054260;28;20541;-87
2021/11/12 09:02:08;;;;;;;94.40;31.53;;;8.00;95.80;;;;;;5036218;28;20207;-87
2021/11/12 09:04:35;;;;;;;91.17;31.07;;;8.00;95.80;;;;;;5036232;28;20317;-87
2021/11/12 09:07:02;;;;;;;83.63;29.70;;;8.00;95.80;;;;;;5036924;28;20175;-87
2021/11/12 09:09:28;;;;;;;88.47;29.13;;;7.80;95.70;;;;;;5036325;28;20594;-87
2021/11/12 09:11:54;;;;;;;89.33;28.63;;;7.80;95.70;;;;;;5053664;28;20585;-87
2021/11/12 09:14:23;;;;;;;83.73;29.07;;;7.80;95.70;;;;;;5053765;28;20532;-87
2021/11/12 09:16:49;;;;;;;76.80;26.80;;;7.80;95.70;;;;;;5035656;28;20222;-87
2021/11/12 09:19:15;;;;;;;82.10;27.37;;;7.90;95.70;;;;;;5035870;28;20171;-87
2021/11/12 09:21:46;;;;;;;71.60;25.40;;;7.80;95.60;;;;;;5035736;28;20687;-87
2021/11/12 09:24:12;;;;;;;74.70;24.50;;;7.80;95.60;;;;;;5035957;28;20180;-87
2021/11/12 09:26:39;;;;;;;68.87;24.33;;;7.80;95.50;;;;;;5035712;28;20202;-87
2021/11/12 09:29:06;;;;;;;56.00;20.70;;;7.80;95.40;;;;;;5036058;28;20274;-87
2021/11/12 09:31:32;;;;;;;54.40;21.90;;;7.80;95.30;;;;;;5035536;28;20203;-86
2021/11/12 09:33:59;;;;;;;60.43;23.70;;;7.70;95.10;;;;;;5035705;28;20176;-86
2021/11/12 09:36:25;;;;;;;56.33;23.50;;;7.70;95.10;;;;;;5035544;28;20176;-87
2021/11/12 09:38:51;;;;;;;59.77;23.90;;;7.70;95.10;;;;;;5035698;28;20607;-87
2021/11/12 09:41:17;;;;;;;51.37;19.50;;;7.80;95.10;;;;;;5035436;28;20223;-87
2021/11/12 09:43:45;;;;;;;55.67;22.17;;;7.70;95.10;;;;;;5035542;28;20667;-86
2021/11/12 09:46:11;;;;;;;55.60;22.40;;;7.70;95.00;;;;;;5053811;28;20266;-87
2021/11/12 09:48:38;;;;;;;52.53;21.90;;;7.80;95.10;;;;;;5053242;28;20207;-86
2021/11/12 09:51:04;;;;;;;55.43;21.47;;;7.80;95.00;;;;;;5035190;28;20688;-86
2021/11/12 09:53:31;;;;;;;52.60;20.13;;;7.70;95.00;;;;;;5035321;28;20648;-86
2021/11/12 09:55:56;;;;;;;74.33;28.10;;;7.70;94.90;;;;;;5053138;28;20168;-86
2021/11/12 09:58:22;;;;;;;70.67;26.87;;;7.70;95.00;;;;;;5035315;28;20183;-86
2021/11/12 10:00:55;;;;;;;58.47;24.23;;;7.80;95.00;;;;;;5035183;28;20172;-87
2021/11/12 10:03:21;;;;;;;60.47;25.00;;;7.70;94.90;;;;;;5053170;28;20152;-87
2021/11/12 10:05:49;;;;;;;53.07;19.87;;;7.70;94.90;;;;;;5035241;28;20253;-87
2021/11/12 10:08:30;;;;;;;61.70;23.67;;;7.70;94.90;;;;;;5035361;28;20176;-88
2021/11/12 10:11:09;;;;;;;58.80;23.87;;;7.80;94.80;;;;;;5035038;28;20191;-87
2021/11/12 10:13:40;;;;;;;52.83;22.73;;;7.90;94.90;;;;;;5035300;28;20172;-87
2021/11/12 10:19:08;;;;;;;53.60;22.77;;;7.90;94.70;;;;;;5053203;28;20167;-87
2021/11/12 10:21:44;;;;;;;56.90;24.13;;;8.00;94.70;;;;;;5035046;28;20706;-87
2021/11/12 10:24:22;;;;;;;54.47;22.60;;;8.00;94.80;;;;;;5035227;28;20239;-87
2021/11/12 10:26:54;;;;;;;57.30;22.17;;;7.90;94.60;;;;;;5036935;28;20176;-87
2021/11/12 10:29:23;;;;;;;51.03;21.17;;;7.90;94.60;;;;;;5057033;28;20520;-87
2021/11/12 10:31:51;;;;;;;46.77;21.43;;;7.80;94.50;;;;;;5038858;28;20288;-87
2021/11/12 10:34:25;;;;;;;44.27;19.97;;;7.90;94.60;;;;;;5039038;28;20214;-88
2021/11/12 10:36:56;;;;;;;46.07;20.27;;;7.80;94.50;;;;;;5039143;28;20210;-87
2021/11/12 10:39:34;;;;;;;49.93;22.97;;;7.80;94.60;;;;;;5056887;28;20674;-87
2021/11/12 10:42:07;;;;;;;46.27;22.50;;;7.80;94.60;;;;;;5038837;28;20226;-87
2021/11/12 10:44:48;;;;;;;43.33;20.13;;;7.80;94.70;;;;;;5056731;28;20192;-88
2021/11/12 10:47:16;;;;;;;36.80;19.97;;;7.90;94.70;;;;;;5038854;28;20259;-87
2021/11/12 10:49:44;;;;;;;37.07;20.03;;;8.00;94.80;;;;;;5038747;28;20260;-87
2021/11/12 10:52:13;;;;;;;34.53;18.10;;;8.00;94.70;;;;;;5038605;28;20208;-87
2021/11/12 10:54:51;;;;;;;33.37;19.20;;;7.90;94.60;;;;;;5038718;28;20196;-87
2021/11/12 10:57:19;;;;;;;28.57;17.43;;;8.00;94.70;;;;;;5056535;28;20298;-87
2021/11/12 11:00:04;;;;;;;30.63;17.40;;;8.10;94.70;;;;;;5038696;28;20539;-87
2021/11/12 11:02:34;;;;;;;33.33;18.13;;;8.10;94.60;;;;;;5056428;28;20254;-87
2021/11/12 11:05:07;;;;;;;28.67;17.17;;;8.20;94.60;;;;;;5038494;28;20161;-87
2021/11/12 11:07:33;;;;;;;31.07;18.40;;;8.20;94.60;;;;;;5038438;28;20171;-87
2021/11/12 11:09:59;;;;;;;25.30;16.37;;;8.20;94.60;;;;;;5056184;28;20521;-88
2021/11/12 11:12:43;;;;;;;23.90;16.70;;;8.30;94.50;;;;;;5038233;28;20725;-87
2021/11/12 11:15:33;;;;;;;25.97;16.50;;;8.30;94.40;;;;;;5038339;28;20171;-88
2021/11/12 11:18:07;;;;;;;23.70;15.83;;;8.30;94.40;;;;;;5056049;28;20164;-88
2021/11/12 11:20:34;;;;;;;29.67;17.33;;;8.30;94.40;;;;;;5038246;28;20632;-88
2021/11/12 11:23:01;;;;;;;33.67;16.13;;;8.40;94.40;;;;;;5157943;22;20581;-88
2021/11/12 11:25:28;;;;;;;28.10;16.57;;;8.40;94.30;;;;;;5049101;28;20179;-88
2021/11/12 11:27:56;;;;;;;23.93;16.57;;;8.50;94.30;;;;;;5042993;28;20173;-87
2021/11/12 11:30:23;;;;;;;29.20;16.90;;;8.50;94.30;;;;;;5042474;28;20173;-88
2021/11/12 11:32:49;;;;;;;22.43;15.27;;;8.60;94.20;;;;;;5042124;28;20552;-88
2021/11/12 11:35:16;;;;;;;21.67;15.43;;;8.50;94.10;;;;;;5059957;28;20172;-88
2021/11/12 11:37:43;;;;;;;24.73;16.87;;;8.60;94.00;;;;;;5059370;28;20175;-88
2021/11/12 11:40:12;;;;;;;24.23;16.23;;;8.60;94.00;;;;;;5040080;28;20179;-89
2021/11/12 11:42:43;;;;;;;22.07;17.00;;;8.70;94.10;;;;;;5058585;28;20195;-88
2021/11/12 11:45:11;;;;;;;23.27;15.90;;;8.70;94.00;;;;;;5040071;28;20206;-88
2021/11/12 11:47:40;;;;;;;20.37;16.30;;;8.70;93.80;;;;;;5058414;28;20175;-89
2021/11/12 11:50:28;;;;;;;22.43;16.77;;;8.70;93.70;;;;;;5041314;28;20266;-88
2021/11/12 11:53:14;;;;;;;21.10;14.43;;;8.80;93.60;;;;;;5058708;28;20621;-88
2021/11/12 11:55:40;;;;;;;19.60;14.70;;;8.80;93.60;;;;;;5058754;28;20485;-88
2021/11/12 11:58:29;;;;;;;20.30;13.87;;;8.80;93.60;;;;;;5058060;28;20255;-88
2021/11/12 12:01:27;;;;;;;18.83;13.47;;;8.90;93.50;;;;;;5040365;28;20597;-89
2021/11/12 12:04:13;;;;;;;19.07;14.13;;;8.90;93.40;;;;;;5035032;28;20218;-88
2021/11/12 12:06:41;;;;;;;17.10;12.53;;;8.90;93.40;;;;;;5033453;28;20191;-88
2021/11/12 12:09:10;;;;;;;16.97;11.87;;;9.00;93.30;;;;;;5044105;28;20187;-89
2021/11/12 12:11:40;;;;;;;17.47;12.83;;;8.90;93.10;;;;;;5043217;28;20303;-89
2021/11/12 12:14:34;;;;;;;21.83;12.43;;;8.90;93.00;;;;;;5043792;28;20723;-89
2021/11/12 12:17:10;;;;;;;16.97;11.80;;;9.00;93.10;;;;;;5040949;28;20184;-89
2021/11/12 12:32:30;;;;;;;15.00;10.70;;;9.10;92.90;;;;;;5061858;28;20222;-89
2021/11/12 13:25:53;;;;;;;10.93;7.70;;;9.50;91.40;;;;;;5056444;28;20225;-88
2021/11/12 13:28:26;;;;;;;11.47;8.33;;;9.50;91.30;;;;;;5016997;28;20738;-89
2021/11/12 13:31:02;;;;;;;10.40;7.93;;;9.60;91.40;;;;;;5039265;28;20196;-88
2021/11/12 13:33:34;;;;;;;9.77;7.63;;;9.60;91.20;;;;;;5037615;28;20274;-89
2021/11/12 13:36:06;;;;;;;9.30;7.00;;;9.60;91.00;;;;;;5037661;28;20227;-88
2021/11/12 13:38:35;;;;;;;10.47;7.57;;;9.60;91.10;;;;;;5037446;28;20164;-89
2021/11/12 13:41:07;;;;;;;10.70;8.50;;;9.50;90.70;;;;;;5037403;28;20548;-89
2021/11/12 13:43:35;;;;;;;11.33;8.17;;;9.50;90.60;;;;;;5038087;28;20199;-88
2021/11/12 13:46:01;;;;;;;11.23;8.17;;;9.50;90.70;;;;;;5037546;28;20185;-88
2021/11/12 13:48:27;;;;;;;10.47;7.83;;;9.50;90.40;;;;;;5037616;28;20547;-88
2021/11/12 13:50:59;;;;;;;8.77;7.60;;;9.40;90.00;;;;;;5038384;28;20200;-88
2021/11/12 13:53:27;;;;;;;10.47;7.90;;;9.40;90.20;;;;;;5056156;28;20267;-89
2021/11/12 13:55:53;;;;;;;11.27;7.83;;;9.50;90.10;;;;;;5040344;28;20175;-87
2021/11/12 13:58:23;;;;;;;12.70;9.07;;;9.50;90.20;;;;;;5057296;28;20171;-88
2021/11/12 14:00:51;;;;;;;13.77;9.00;;;9.50;90.30;;;;;;5038344;28;20636;-88
2021/11/12 14:03:22;;;;;;;15.43;7.13;;;9.50;90.10;;;;;;5038190;28;20690;-88
2021/11/12 14:05:59;;;;;;;14.70;9.20;;;9.50;89.70;;;;;;5055731;28;20153;-87
2021/11/12 14:08:45;;;;;;;11.10;8.40;;;9.50;89.90;;;;;;5038208;28;20186;-88
2021/11/12 14:11:22;;;;;;;10.93;7.83;;;9.50;89.90;;;;;;5056648;28;20195;-88
2021/11/12 14:13:49;;;;;;;9.10;6.83;;;9.50;90.00;;;;;;5037770;28;20160;-87
2021/11/12 14:16:24;;;;;;;21.93;11.97;;;9.50;90.10;;;;;;5038662;28;20270;-87
2021/11/12 14:22:04;;;;;;;13.20;7.20;;;9.50;89.20;;;;;;5056639;28;20190;-87
2021/11/12 14:27:36;;;;;;;7.80;5.93;;;9.40;89.00;;;;;;5057963;28;20309;-87
2021/11/12 14:32:33;;;;;;;4.30;3.80;;;9.40;88.20;;;;;;5059915;28;20668;-87
2021/11/12 14:35:12;;;;;;;5.57;4.30;;;9.20;87.00;;;;;;5042328;28;20164;-88
2021/11/12 14:40:39;;;;;;;5.93;4.43;;;9.10;87.10;;;;;;5059442;28;20164;-87
2021/11/12 14:50:54;;;;;;;5.47;3.83;;;9.00;86.00;;;;;;5055250;28;20298;-89
2021/11/12 14:53:26;;;;;;;5.40;3.27;;;9.00;85.50;;;;;;5054449;28;20184;-89
2021/11/12 14:56:05;;;;;;;8.17;3.20;;;8.90;85.90;;;;;;5054497;28;20152;-90
2021/11/12 14:58:31;;;;;;;3.83;3.43;;;8.90;85.90;;;;;;5037197;28;20692;-89
2021/11/12 15:01:08;;;;;;;3.60;3.03;;;8.90;85.80;;;;;;5037553;28;20186;-88
2021/11/12 15:03:34;;;;;;;6.03;3.63;;;8.80;85.80;;;;;;5057979;28;20222;-88
2021/11/12 15:06:01;;;;;;;4.00;3.60;;;8.80;85.60;;;;;;5055219;28;20183;-89
2021/11/12 15:08:28;;;;;;;4.13;3.50;;;8.80;85.90;;;;;;5038212;28;20179;-88
2021/11/12 15:10:55;;;;;;;4.50;3.40;;;8.70;86.20;;;;;;5037572;28;20290;-87
2021/11/12 15:13:21;;;;;;;6.27;4.37;;;8.70;86.20;;;;;;5056944;28;20184;-87
2021/11/12 15:15:48;;;;;;;4.03;3.63;;;8.60;86.50;;;;;;5041010;28;20169;-88
2021/11/12 15:18:14;;;;;;;4.33;3.93;;;8.60;86.70;;;;;;5041742;28;20178;-88
2021/11/12 15:20:41;;;;;;;5.20;4.23;;;8.50;86.90;;;;;;5040885;28;20180;-88
2021/11/12 15:28:39;;;;;;;5.77;4.03;;;8.50;87.50;;;;;;5058531;28;20263;-88
2021/11/12 15:33:30;;;;;;;4.37;3.97;;;8.30;87.90;;;;;;5059674;28;20188;-89
2021/11/12 15:35:58;;;;;;;5.03;4.10;;;8.30;88.20;;;;;;5059987;28;20234;-88
2021/11/12 15:43:42;;;;;;;20.33;15.90;;;8.20;88.90;;;;;;5059624;28;20163;-89
2021/11/12 15:46:20;;;;;;;9.07;7.43;;;8.10;89.10;;;;;;5059291;28;20239;-89
2021/11/12 15:48:47;;;;;;;11.90;8.80;;;8.10;89.30;;;;;;5042356;28;20171;-88
2021/11/12 16:12:13;;;;;;;7.50;6.20;;;7.90;89.60;;;;;;5061217;28;20230;-88
2021/11/12 16:20:08;;;;;;;8.23;6.30;;;7.80;89.50;;;;;;5061204;28;20660;-88
2021/11/12 16:27:43;;;;;;;8.63;7.37;;;7.80;89.30;;;;;;5061488;28;20626;-88
2021/11/12 16:30:11;;;;;;;8.90;8.00;;;7.70;89.40;;;;;;5043759;28;20651;-88
2021/11/12 16:35:04;;;;;;;9.27;8.37;;;7.70;89.50;;;;;;5063375;28;20199;-87
2021/11/12 16:37:31;;;;;;;10.20;9.10;;;7.70;89.50;;;;;;5045981;28;20172;-88
2021/11/12 16:44:56;;;;;;;9.97;8.97;;;7.60;89.60;;;;;;5059636;28;20172;-89
2021/11/12 16:52:45;;;;;;;9.20;8.30;;;7.50;89.60;;;;;;5058514;28;20210;-89
2021/11/12 17:11:30;;;;;;;12.00;9.57;;;7.60;90.10;;;;;;5057219;28;20286;-88
2021/11/12 17:16:43;;;;;;;10.63;9.40;;;7.60;90.10;;;;;;5056837;28;20167;-88
2021/11/12 17:48:41;;;;;;;14.93;13.33;;;7.50;90.30;;;;;;5053566;28;20168;-87
2021/11/12 21:45:08;;;;;;;50.70;31.73;;;6.20;91.10;;;;;;5053927;28;20179;-86
2021/11/12 21:47:34;;;;;;;49.17;30.57;;;6.20;91.20;;;;;;5035497;28;20254;-87
2021/11/12 21:50:00;;;;;;;55.23;31.40;;;6.30;91.10;;;;;;5035749;28;20658;-89
2021/11/12 21:52:26;;;;;;;56.87;30.43;;;6.30;90.80;;;;;;5035643;28;20216;-86
2021/11/12 21:54:51;;;;;;;53.10;31.30;;;6.20;90.70;;;;;;5035737;28;20250;-86
2021/11/12 21:57:17;;;;;;;48.10;30.17;;;6.20;90.80;;;;;;5035749;28;20176;-86
2021/11/12 21:59:43;;;;;;;50.93;29.03;;;6.20;90.90;;;;;;5053481;28;20659;-87
2021/11/12 22:02:09;;;;;;;50.77;29.60;;;6.20;90.80;;;;;;5035662;28;20202;-89
2021/11/12 22:04:35;;;;;;;52.20;31.33;;;6.30;90.90;;;;;;5035822;28;20648;-87
2021/11/12 22:07:01;;;;;;;52.03;30.77;;;6.20;90.80;;;;;;5035276;28;20191;-87
2021/11/12 22:09:27;;;;;;;54.17;30.97;;;6.20;90.70;;;;;;5035469;28;20182;-87
2021/11/12 22:11:54;;;;;;;47.77;31.10;;;6.20;90.70;;;;;;5053109;28;20586;-86
2021/11/12 22:14:19;;;;;;;53.77;29.87;;;6.30;90.70;;;;;;5055841;28;20237;-87
2021/11/12 22:16:45;;;;;;;50.07;29.70;;;6.20;90.60;;;;;;5056312;28;20176;-87
2021/11/12 22:19:11;;;;;;;49.83;30.87;;;6.20;90.60;;;;;;5055819;28;20168;-87
2021/11/12 22:21:36;;;;;;;47.87;29.23;;;6.30;90.60;;;;;;5056669;28;20242;-89
2021/11/12 22:24:03;;;;;;;50.13;30.50;;;6.20;90.60;;;;;;5043156;28;20168;-89
2021/11/12 22:26:29;;;;;;;50.10;30.70;;;6.20;90.70;;;;;;5042571;28;20182;-87
2021/11/12 22:28:54;;;;;;;48.60;30.93;;;6.20;90.60;;;;;;5042346;28;20184;-87
2021/11/12 22:31:21;;;;;;;52.83;29.77;;;6.30;90.60;;;;;;5060431;28;20217;-89
2021/11/12 22:33:47;;;;;;;46.17;29.80;;;6.20;90.50;;;;;;5061004;28;20168;-87
2021/11/12 22:36:13;;;;;;;58.73;31.17;;;6.30;90.60;;;;;;5042220;28;20259;-87
2021/11/12 22:38:40;;;;;;;52.20;30.47;;;6.20;90.40;;;;;;5060448;28;20577;-87
2021/11/12 22:41:07;;;;;;;45.20;30.03;;;6.20;90.60;;;;;;5042381;28;20198;-87
2021/11/12 22:43:35;;;;;;;50.77;30.57;;;6.20;90.60;;;;;;5042403;28;20202;-87
2021/11/12 22:46:02;;;;;;;51.33;29.87;;;6.20;90.60;;;;;;5060927;28;20313;-88
2021/11/12 22:48:27;;;;;;;48.20;30.37;;;6.20;90.60;;;;;;5042476;28;20208;-87
2021/11/12 22:50:53;;;;;;;53.77;31.30;;;6.20;90.60;;;;;;5041782;28;20710;-88
2021/11/12 22:53:19;;;;;;;52.20;30.20;;;6.20;90.60;;;;;;5041760;28;20614;-87
2021/11/12 22:55:45;;;;;;;53.63;30.80;;;6.10;90.50;;;;;;5041887;28;20566;-87
2021/11/12 22:58:11;;;;;;;52.70;31.67;;;6.10;90.40;;;;;;5059005;28;20160;-88
2021/11/12 23:00:59;;;;;;;56.03;30.43;;;6.10;90.40;;;;;;5041366;28;20194;-89
2021/11/12 23:03:25;;;;;;;46.20;28.07;;;6.10;90.50;;;;;;5041099;28;20188;-87
2021/11/12 23:05:51;;;;;;;55.63;31.80;;;6.10;90.60;;;;;;5059371;28;20228;-88
2021/11/12 23:08:17;;;;;;;53.43;31.87;;;6.10;90.40;;;;;;5059641;28;20169;-87
2021/11/12 23:10:43;;;;;;;54.83;32.47;;;6.10;90.50;;;;;;5041527;28;20195;-87
2021/11/12 23:13:09;;;;;;;55.57;32.23;;;6.10;90.60;;;;;;5059505;28;20184;-87